sensor_id;sensor_type;location;lat;lon;timestamp;temperature;humidity
3644;DHT22;1838;50.742;7.158;2023-03-11T00:00:55;2.80;99.90
3644;DHT22;1838;50.742;7.158;2023-03-11T00:03:21;2.80;99.90
3644;DHT22;1838;50.742;7.158;2023-03-11T00:05:47;2.80;99.90
3644;DHT22;1838;50.742;7.158;2023-03-11T00:08:16;2.80;99.90
3644;DHT22;1838;50.742;7.158;2023-03-11T00:10:43;2.90;99.90
3644;DHT22;1838;50.742;7.158;2023-03-11T00:13:11;2.90;99.90
3644;DHT22;1838;50.742;7.158;2023-03-11T00:15:38;2.90;99.90
3644;DHT22;1838;50.742;7.158;2023-03-11T00:18:05;2.90;99.90
3644;DHT22;1838;50.742;7.158;2023-03-11T00:20:33;2.90;99.90
3644;DHT22;1838;50.742;7.158;2023-03-11T00:22:59;2.90;99.90
3644;DHT22;1838;50.742;7.158;2023-03-11T00:25:27;3.00;99.90
3644;DHT22;1838;50.742;7.158;2023-03-11T00:27:53;2.90;99.90
3644;DHT22;1838;50.742;7.158;2023-03-11T00:30:19;2.90;99.90
3644;DHT22;1838;50.742;7.158;2023-03-11T00:32:50;2.90;99.90
3644;DHT22;1838;50.742;7.158;2023-03-11T00:35:19;3.00;99.90
3644;DHT22;1838;50.742;7.158;2023-03-11T00:37:46;3.00;99.90
3644;DHT22;1838;50.742;7.158;2023-03-11T00:40:16;2.90;99.90
3644;DHT22;1838;50.742;7.158;2023-03-11T00:42:42;3.00;99.90
3644;DHT22;1838;50.742;7.158;2023-03-11T00:45:08;3.00;99.90
3644;DHT22;1838;50.742;7.158;2023-03-11T00:47:33;3.00;99.90
3644;DHT22;1838;50.742;7.158;2023-03-11T00:49:59;3.10;99.90
3644;DHT22;1838;50.742;7.158;2023-03-11T00:52:25;3.10;99.90
3644;DHT22;1838;50.742;7.158;2023-03-11T00:54:50;3.10;99.90
3644;DHT22;1838;50.742;7.158;2023-03-11T00:57:16;3.10;99.90
3644;DHT22;1838;50.742;7.158;2023-03-11T00:59:41;3.10;99.90
3644;DHT22;1838;50.742;7.158;2023-03-11T01:02:07;3.10;99.90
3644;DHT22;1838;50.742;7.158;2023-03-11T01:04:32;3.10;99.90
3644;DHT22;1838;50.742;7.158;2023-03-11T01:06:58;3.20;99.90
3644;DHT22;1838;50.742;7.158;2023-03-11T01:09:24;3.10;99.90
3644;DHT22;1838;50.742;7.158;2023-03-11T01:11:49;3.20;99.90
3644;DHT22;1838;50.742;7.158;2023-03-11T01:14:16;3.20;99.90
3644;DHT22;1838;50.742;7.158;2023-03-11T01:16:42;3.10;99.90
3644;DHT22;1838;50.742;7.158;2023-03-11T01:19:07;3.10;99.90
3644;DHT22;1838;50.742;7.158;2023-03-11T01:21:33;3.10;99.90
3644;DHT22;1838;50.742;7.158;2023-03-11T01:23:58;3.00;99.90
3644;DHT22;1838;50.742;7.158;2023-03-11T01:26:24;3.00;99.90
3644;DHT22;1838;50.742;7.158;2023-03-11T01:28:49;3.00;99.90
3644;DHT22;1838;50.742;7.158;2023-03-11T01:31:15;3.00;99.90
3644;DHT22;1838;50.742;7.158;2023-03-11T01:33:41;3.00;99.90
3644;DHT22;1838;50.742;7.158;2023-03-11T01:36:07;3.00;99.90
3644;DHT22;1838;50.742;7.158;2023-03-11T01:38:32;3.10;99.90
3644;DHT22;1838;50.742;7.158;2023-03-11T01:40:58;3.10;99.90
3644;DHT22;1838;50.742;7.158;2023-03-11T01:43:45;3.10;99.90
3644;DHT22;1838;50.742;7.158;2023-03-11T01:46:23;3.10;99.90
3644;DHT22;1838;50.742;7.158;2023-03-11T01:48:59;3.10;99.90
3644;DHT22;1838;50.742;7.158;2023-03-11T01:51:39;3.10;99.90
3644;DHT22;1838;50.742;7.158;2023-03-11T01:54:08;3.10;99.90
3644;DHT22;1838;50.742;7.158;2023-03-11T01:56:36;3.10;99.90
3644;DHT22;1838;50.742;7.158;2023-03-11T01:59:05;3.10;99.90
3644;DHT22;1838;50.742;7.158;2023-03-11T02:01:31;3.10;99.90
3644;DHT22;1838;50.742;7.158;2023-03-11T02:03:57;3.10;99.90
3644;DHT22;1838;50.742;7.158;2023-03-11T02:06:23;3.10;99.90
3644;DHT22;1838;50.742;7.158;2023-03-11T02:08:49;3.20;99.90
3644;DHT22;1838;50.742;7.158;2023-03-11T02:11:21;3.20;99.90
3644;DHT22;1838;50.742;7.158;2023-03-11T02:13:49;3.20;99.90
3644;DHT22;1838;50.742;7.158;2023-03-11T02:16:16;3.20;99.90
3644;DHT22;1838;50.742;7.158;2023-03-11T02:18:42;3.20;99.90
3644;DHT22;1838;50.742;7.158;2023-03-11T02:21:24;3.30;99.90
3644;DHT22;1838;50.742;7.158;2023-03-11T02:24:11;3.20;99.90
3644;DHT22;1838;50.742;7.158;2023-03-11T02:27:06;3.20;99.90
3644;DHT22;1838;50.742;7.158;2023-03-11T02:29:33;3.20;99.90
3644;DHT22;1838;50.742;7.158;2023-03-11T02:32:02;3.20;99.90
3644;DHT22;1838;50.742;7.158;2023-03-11T02:34:33;3.20;99.90
3644;DHT22;1838;50.742;7.158;2023-03-11T02:37:00;3.20;99.90
3644;DHT22;1838;50.742;7.158;2023-03-11T02:39:44;3.20;99.90
3644;DHT22;1838;50.742;7.158;2023-03-11T02:42:13;3.10;99.90
3644;DHT22;1838;50.742;7.158;2023-03-11T02:44:41;3.10;99.90
3644;DHT22;1838;50.742;7.158;2023-03-11T02:47:08;3.10;99.90
3644;DHT22;1838;50.742;7.158;2023-03-11T02:49:33;3.00;99.90
3644;DHT22;1838;50.742;7.158;2023-03-11T02:52:00;3.00;99.90
3644;DHT22;1838;50.742;7.158;2023-03-11T02:54:25;3.00;99.90
3644;DHT22;1838;50.742;7.158;2023-03-11T02:56:51;3.10;99.90
3644;DHT22;1838;50.742;7.158;2023-03-11T02:59:16;3.10;99.90
3644;DHT22;1838;50.742;7.158;2023-03-11T03:01:42;3.00;99.90
3644;DHT22;1838;50.742;7.158;2023-03-11T03:04:07;3.00;99.90
3644;DHT22;1838;50.742;7.158;2023-03-11T03:06:33;3.00;99.90
3644;DHT22;1838;50.742;7.158;2023-03-11T03:08:58;2.90;99.90
3644;DHT22;1838;50.742;7.158;2023-03-11T03:11:24;2.90;99.90
3644;DHT22;1838;50.742;7.158;2023-03-11T03:13:49;2.90;99.90
3644;DHT22;1838;50.742;7.158;2023-03-11T03:16:15;2.80;99.90
3644;DHT22;1838;50.742;7.158;2023-03-11T03:18:40;2.80;99.90
3644;DHT22;1838;50.742;7.158;2023-03-11T03:21:06;2.80;99.90
3644;DHT22;1838;50.742;7.158;2023-03-11T03:23:31;2.80;99.90
3644;DHT22;1838;50.742;7.158;2023-03-11T03:26:00;2.80;99.90
3644;DHT22;1838;50.742;7.158;2023-03-11T03:28:26;2.90;99.90
3644;DHT22;1838;50.742;7.158;2023-03-11T03:30:52;2.90;99.90
3644;DHT22;1838;50.742;7.158;2023-03-11T03:33:17;2.90;99.90
3644;DHT22;1838;50.742;7.158;2023-03-11T03:35:44;2.90;99.90
3644;DHT22;1838;50.742;7.158;2023-03-11T03:38:10;3.00;99.90
3644;DHT22;1838;50.742;7.158;2023-03-11T03:40:36;2.90;99.90
3644;DHT22;1838;50.742;7.158;2023-03-11T03:43:02;2.90;99.90
3644;DHT22;1838;50.742;7.158;2023-03-11T03:45:27;2.80;99.90
3644;DHT22;1838;50.742;7.158;2023-03-11T03:47:53;2.80;99.90
3644;DHT22;1838;50.742;7.158;2023-03-11T03:50:18;2.80;99.90
3644;DHT22;1838;50.742;7.158;2023-03-11T03:52:44;2.80;99.90
3644;DHT22;1838;50.742;7.158;2023-03-11T03:55:10;2.80;99.90
3644;DHT22;1838;50.742;7.158;2023-03-11T03:57:35;2.80;99.90
3644;DHT22;1838;50.742;7.158;2023-03-11T04:00:01;2.80;99.90
3644;DHT22;1838;50.742;7.158;2023-03-11T04:02:27;2.70;99.90
3644;DHT22;1838;50.742;7.158;2023-03-11T04:04:52;2.70;99.90
3644;DHT22;1838;50.742;7.158;2023-03-11T04:07:18;2.70;99.90
3644;DHT22;1838;50.742;7.158;2023-03-11T04:09:43;2.60;99.90
3644;DHT22;1838;50.742;7.158;2023-03-11T04:12:13;2.50;99.90
3644;DHT22;1838;50.742;7.158;2023-03-11T04:14:40;2.50;99.90
3644;DHT22;1838;50.742;7.158;2023-03-11T04:17:05;2.40;99.90
3644;DHT22;1838;50.742;7.158;2023-03-11T04:19:31;2.40;99.90
3644;DHT22;1838;50.742;7.158;2023-03-11T04:21:57;2.30;99.90
3644;DHT22;1838;50.742;7.158;2023-03-11T04:24:23;2.30;99.90
3644;DHT22;1838;50.742;7.158;2023-03-11T04:26:48;2.30;99.90
3644;DHT22;1838;50.742;7.158;2023-03-11T04:29:14;2.20;99.90
3644;DHT22;1838;50.742;7.158;2023-03-11T04:31:39;2.20;99.90
3644;DHT22;1838;50.742;7.158;2023-03-11T04:34:05;2.20;99.90
3644;DHT22;1838;50.742;7.158;2023-03-11T04:36:31;2.10;99.90
3644;DHT22;1838;50.742;7.158;2023-03-11T04:38:56;2.10;99.90
3644;DHT22;1838;50.742;7.158;2023-03-11T04:41:22;2.10;99.90
3644;DHT22;1838;50.742;7.158;2023-03-11T04:43:47;2.00;99.90
3644;DHT22;1838;50.742;7.158;2023-03-11T04:46:13;2.00;99.90
3644;DHT22;1838;50.742;7.158;2023-03-11T04:48:38;2.00;99.90
3644;DHT22;1838;50.742;7.158;2023-03-11T04:51:04;1.90;99.90
3644;DHT22;1838;50.742;7.158;2023-03-11T04:53:30;1.90;99.90
3644;DHT22;1838;50.742;7.158;2023-03-11T04:55:56;1.90;99.90
3644;DHT22;1838;50.742;7.158;2023-03-11T04:58:21;1.90;99.90
3644;DHT22;1838;50.742;7.158;2023-03-11T05:00:47;1.80;99.90
3644;DHT22;1838;50.742;7.158;2023-03-11T05:03:12;1.80;99.90
3644;DHT22;1838;50.742;7.158;2023-03-11T05:05:38;1.90;99.90
3644;DHT22;1838;50.742;7.158;2023-03-11T05:08:03;1.80;99.90
3644;DHT22;1838;50.742;7.158;2023-03-11T05:10:29;1.80;99.90
3644;DHT22;1838;50.742;7.158;2023-03-11T05:12:55;1.80;99.90
3644;DHT22;1838;50.742;7.158;2023-03-11T05:15:20;1.80;99.90
3644;DHT22;1838;50.742;7.158;2023-03-11T05:17:46;1.80;99.90
3644;DHT22;1838;50.742;7.158;2023-03-11T05:20:12;1.70;99.90
3644;DHT22;1838;50.742;7.158;2023-03-11T05:22:38;1.80;99.90
3644;DHT22;1838;50.742;7.158;2023-03-11T05:25:04;1.70;99.90
3644;DHT22;1838;50.742;7.158;2023-03-11T05:27:30;1.70;99.90
3644;DHT22;1838;50.742;7.158;2023-03-11T05:29:55;1.70;99.90
3644;DHT22;1838;50.742;7.158;2023-03-11T05:32:21;1.70;99.90
3644;DHT22;1838;50.742;7.158;2023-03-11T05:34:47;1.70;99.90
3644;DHT22;1838;50.742;7.158;2023-03-11T05:37:12;1.70;99.90
3644;DHT22;1838;50.742;7.158;2023-03-11T05:39:38;1.70;99.90
3644;DHT22;1838;50.742;7.158;2023-03-11T05:42:04;1.60;99.90
3644;DHT22;1838;50.742;7.158;2023-03-11T05:44:31;1.60;99.90
3644;DHT22;1838;50.742;7.158;2023-03-11T05:46:56;1.60;99.90
3644;DHT22;1838;50.742;7.158;2023-03-11T05:49:22;1.50;99.90
3644;DHT22;1838;50.742;7.158;2023-03-11T05:51:48;1.50;99.90
3644;DHT22;1838;50.742;7.158;2023-03-11T05:54:14;1.50;99.90
3644;DHT22;1838;50.742;7.158;2023-03-11T05:56:41;1.50;99.90
3644;DHT22;1838;50.742;7.158;2023-03-11T05:59:07;1.50;99.90
3644;DHT22;1838;50.742;7.158;2023-03-11T06:01:33;1.50;99.90
3644;DHT22;1838;50.742;7.158;2023-03-11T06:03:59;1.40;99.90
3644;DHT22;1838;50.742;7.158;2023-03-11T06:06:25;1.50;99.90
3644;DHT22;1838;50.742;7.158;2023-03-11T06:08:51;1.50;99.90
3644;DHT22;1838;50.742;7.158;2023-03-11T06:11:18;1.40;99.90
3644;DHT22;1838;50.742;7.158;2023-03-11T06:13:44;1.50;99.90
3644;DHT22;1838;50.742;7.158;2023-03-11T06:16:10;1.50;99.90
3644;DHT22;1838;50.742;7.158;2023-03-11T06:18:35;1.50;99.90
3644;DHT22;1838;50.742;7.158;2023-03-11T06:21:02;1.50;99.90
3644;DHT22;1838;50.742;7.158;2023-03-11T06:23:29;1.60;99.90
3644;DHT22;1838;50.742;7.158;2023-03-11T06:25:59;1.60;99.90
3644;DHT22;1838;50.742;7.158;2023-03-11T06:28:25;1.60;99.90
3644;DHT22;1838;50.742;7.158;2023-03-11T06:30:52;1.60;99.90
3644;DHT22;1838;50.742;7.158;2023-03-11T06:33:17;1.70;99.90
3644;DHT22;1838;50.742;7.158;2023-03-11T06:35:43;1.70;99.90
3644;DHT22;1838;50.742;7.158;2023-03-11T06:38:09;1.70;99.90
3644;DHT22;1838;50.742;7.158;2023-03-11T06:40:36;1.80;99.90
3644;DHT22;1838;50.742;7.158;2023-03-11T06:43:02;1.90;99.90
3644;DHT22;1838;50.742;7.158;2023-03-11T06:45:28;1.90;99.90
3644;DHT22;1838;50.742;7.158;2023-03-11T06:47:53;1.90;99.90
3644;DHT22;1838;50.742;7.158;2023-03-11T06:50:18;2.00;99.90
3644;DHT22;1838;50.742;7.158;2023-03-11T06:52:44;2.00;99.90
3644;DHT22;1838;50.742;7.158;2023-03-11T06:55:10;2.10;99.90
3644;DHT22;1838;50.742;7.158;2023-03-11T06:57:35;2.20;99.90
3644;DHT22;1838;50.742;7.158;2023-03-11T07:00:01;2.20;99.90
3644;DHT22;1838;50.742;7.158;2023-03-11T07:02:27;2.30;99.90
3644;DHT22;1838;50.742;7.158;2023-03-11T07:04:52;2.40;99.90
3644;DHT22;1838;50.742;7.158;2023-03-11T07:07:18;2.40;99.90
3644;DHT22;1838;50.742;7.158;2023-03-11T07:09:45;2.60;99.90
3644;DHT22;1838;50.742;7.158;2023-03-11T07:12:11;2.60;99.90
3644;DHT22;1838;50.742;7.158;2023-03-11T07:14:36;2.60;99.90
3644;DHT22;1838;50.742;7.158;2023-03-11T07:17:02;2.70;99.90
3644;DHT22;1838;50.742;7.158;2023-03-11T07:19:27;2.80;99.90
3644;DHT22;1838;50.742;7.158;2023-03-11T07:21:53;2.80;99.90
3644;DHT22;1838;50.742;7.158;2023-03-11T07:24:18;2.80;99.90
3644;DHT22;1838;50.742;7.158;2023-03-11T07:26:44;2.90;99.90
3644;DHT22;1838;50.742;7.158;2023-03-11T07:29:09;3.00;99.90
3644;DHT22;1838;50.742;7.158;2023-03-11T07:31:36;3.10;99.90
3644;DHT22;1838;50.742;7.158;2023-03-11T07:34:04;3.20;99.90
3644;DHT22;1838;50.742;7.158;2023-03-11T07:36:30;3.30;99.90
3644;DHT22;1838;50.742;7.158;2023-03-11T07:38:58;3.40;99.90
3644;DHT22;1838;50.742;7.158;2023-03-11T07:41:24;3.40;99.90
3644;DHT22;1838;50.742;7.158;2023-03-11T07:43:53;3.50;99.90
3644;DHT22;1838;50.742;7.158;2023-03-11T07:46:19;3.50;99.90
3644;DHT22;1838;50.742;7.158;2023-03-11T07:48:47;3.60;99.90
3644;DHT22;1838;50.742;7.158;2023-03-11T07:51:20;3.70;99.90
3644;DHT22;1838;50.742;7.158;2023-03-11T07:53:47;3.80;99.90
3644;DHT22;1838;50.742;7.158;2023-03-11T07:56:14;3.90;99.90
3644;DHT22;1838;50.742;7.158;2023-03-11T07:58:40;3.90;99.90
3644;DHT22;1838;50.742;7.158;2023-03-11T08:01:09;4.00;99.90
3644;DHT22;1838;50.742;7.158;2023-03-11T08:03:36;4.10;99.90
3644;DHT22;1838;50.742;7.158;2023-03-11T08:06:02;4.20;99.90
3644;DHT22;1838;50.742;7.158;2023-03-11T08:08:28;4.40;99.90
3644;DHT22;1838;50.742;7.158;2023-03-11T08:10:54;4.60;99.90
3644;DHT22;1838;50.742;7.158;2023-03-11T08:13:19;4.70;99.90
3644;DHT22;1838;50.742;7.158;2023-03-11T08:15:45;4.90;99.90
3644;DHT22;1838;50.742;7.158;2023-03-11T08:18:11;5.20;99.90
3644;DHT22;1838;50.742;7.158;2023-03-11T08:20:37;5.40;99.90
3644;DHT22;1838;50.742;7.158;2023-03-11T08:23:03;5.50;99.90
3644;DHT22;1838;50.742;7.158;2023-03-11T08:25:28;5.70;99.90
3644;DHT22;1838;50.742;7.158;2023-03-11T08:27:54;5.80;99.90
3644;DHT22;1838;50.742;7.158;2023-03-11T08:30:20;6.10;99.90
3644;DHT22;1838;50.742;7.158;2023-03-11T08:32:46;6.20;99.90
3644;DHT22;1838;50.742;7.158;2023-03-11T08:35:11;6.40;99.90
3644;DHT22;1838;50.742;7.158;2023-03-11T08:37:37;6.60;99.90
3644;DHT22;1838;50.742;7.158;2023-03-11T08:40:03;6.80;99.90
3644;DHT22;1838;50.742;7.158;2023-03-11T08:42:29;6.70;99.90
3644;DHT22;1838;50.742;7.158;2023-03-11T08:44:54;7.00;99.90
3644;DHT22;1838;50.742;7.158;2023-03-11T08:47:20;7.10;99.90
3644;DHT22;1838;50.742;7.158;2023-03-11T08:49:45;7.40;99.90
3644;DHT22;1838;50.742;7.158;2023-03-11T08:52:11;7.60;99.90
3644;DHT22;1838;50.742;7.158;2023-03-11T08:54:36;7.80;99.90
3644;DHT22;1838;50.742;7.158;2023-03-11T08:57:02;7.90;99.90
3644;DHT22;1838;50.742;7.158;2023-03-11T08:59:29;8.00;99.90
3644;DHT22;1838;50.742;7.158;2023-03-11T09:01:55;8.10;99.90
3644;DHT22;1838;50.742;7.158;2023-03-11T09:04:20;8.20;99.90
3644;DHT22;1838;50.742;7.158;2023-03-11T09:06:46;8.20;99.90
3644;DHT22;1838;50.742;7.158;2023-03-11T09:09:13;8.30;99.90
3644;DHT22;1838;50.742;7.158;2023-03-11T09:11:40;8.40;99.90
3644;DHT22;1838;50.742;7.158;2023-03-11T09:14:06;8.60;99.90
3644;DHT22;1838;50.742;7.158;2023-03-11T09:16:32;8.80;99.90
3644;DHT22;1838;50.742;7.158;2023-03-11T09:18:58;8.80;99.80
3644;DHT22;1838;50.742;7.158;2023-03-11T09:21:31;8.90;99.00
3644;DHT22;1838;50.742;7.158;2023-03-11T09:23:56;9.10;99.10
3644;DHT22;1838;50.742;7.158;2023-03-11T09:26:22;9.20;98.60
3644;DHT22;1838;50.742;7.158;2023-03-11T09:28:48;9.00;97.70
3644;DHT22;1838;50.742;7.158;2023-03-11T09:31:14;8.90;98.60
3644;DHT22;1838;50.742;7.158;2023-03-11T09:33:41;9.00;99.40
3644;DHT22;1838;50.742;7.158;2023-03-11T09:36:07;8.80;95.10
3644;DHT22;1838;50.742;7.158;2023-03-11T09:38:36;8.50;95.50
3644;DHT22;1838;50.742;7.158;2023-03-11T09:41:12;8.60;94.50
3644;DHT22;1838;50.742;7.158;2023-03-11T09:50:28;8.70;95.50
3644;DHT22;1838;50.742;7.158;2023-03-11T09:53:18;9.00;96.10
3644;DHT22;1838;50.742;7.158;2023-03-11T10:00:54;9.10;85.10
3644;DHT22;1838;50.742;7.158;2023-03-11T10:03:39;9.20;80.50
3644;DHT22;1838;50.742;7.158;2023-03-11T10:06:21;9.40;77.70
3644;DHT22;1838;50.742;7.158;2023-03-11T10:09:28;9.40;78.40
3644;DHT22;1838;50.742;7.158;2023-03-11T10:12:23;9.30;74.10
3644;DHT22;1838;50.742;7.158;2023-03-11T10:17:55;8.70;75.20
3644;DHT22;1838;50.742;7.158;2023-03-11T10:28:35;9.00;72.80
3644;DHT22;1838;50.742;7.158;2023-03-11T10:33:46;9.40;74.20
3644;DHT22;1838;50.742;7.158;2023-03-11T10:36:17;9.40;72.30
3644;DHT22;1838;50.742;7.158;2023-03-11T10:38:49;9.50;70.40
3644;DHT22;1838;50.742;7.158;2023-03-11T10:41:27;9.40;65.30
3644;DHT22;1838;50.742;7.158;2023-03-11T10:44:31;9.40;69.50
3644;DHT22;1838;50.742;7.158;2023-03-11T10:46:58;9.50;70.50
3644;DHT22;1838;50.742;7.158;2023-03-11T10:49:23;9.60;70.60
3644;DHT22;1838;50.742;7.158;2023-03-11T10:51:51;9.50;70.20
3644;DHT22;1838;50.742;7.158;2023-03-11T10:54:33;9.40;68.80
3644;DHT22;1838;50.742;7.158;2023-03-11T10:57:25;9.30;69.30
3644;DHT22;1838;50.742;7.158;2023-03-11T10:59:57;9.50;68.90
3644;DHT22;1838;50.742;7.158;2023-03-11T11:07:36;9.20;63.40
3644;DHT22;1838;50.742;7.158;2023-03-11T11:10:24;9.10;63.40
3644;DHT22;1838;50.742;7.158;2023-03-11T11:15:23;8.90;65.70
3644;DHT22;1838;50.742;7.158;2023-03-11T11:17:49;8.90;67.60
3644;DHT22;1838;50.742;7.158;2023-03-11T11:20:18;9.10;65.90
3644;DHT22;1838;50.742;7.158;2023-03-11T11:22:50;8.90;67.40
3644;DHT22;1838;50.742;7.158;2023-03-11T11:25:34;9.30;71.30
3644;DHT22;1838;50.742;7.158;2023-03-11T11:28:16;9.50;66.10
3644;DHT22;1838;50.742;7.158;2023-03-11T11:30:59;9.50;62.20
3644;DHT22;1838;50.742;7.158;2023-03-11T11:33:29;9.60;61.60
3644;DHT22;1838;50.742;7.158;2023-03-11T11:35:58;9.50;59.30
3644;DHT22;1838;50.742;7.158;2023-03-11T11:38:34;9.60;61.30
3644;DHT22;1838;50.742;7.158;2023-03-11T11:41:03;9.30;59.60
3644;DHT22;1838;50.742;7.158;2023-03-11T11:43:55;9.00;61.90
3644;DHT22;1838;50.742;7.158;2023-03-11T11:46:46;8.90;65.40
3644;DHT22;1838;50.742;7.158;2023-03-11T11:51:49;9.00;72.10
3644;DHT22;1838;50.742;7.158;2023-03-11T11:54:28;9.20;70.40
3644;DHT22;1838;50.742;7.158;2023-03-11T11:56:59;9.30;69.80
3644;DHT22;1838;50.742;7.158;2023-03-11T11:59:26;9.50;69.50
3644;DHT22;1838;50.742;7.158;2023-03-11T12:13:00;8.80;70.40
3644;DHT22;1838;50.742;7.158;2023-03-11T12:15:39;8.90;73.60
3644;DHT22;1838;50.742;7.158;2023-03-11T12:18:13;8.80;75.60
3644;DHT22;1838;50.742;7.158;2023-03-11T12:23:57;9.30;71.60
3644;DHT22;1838;50.742;7.158;2023-03-11T12:26:31;9.40;70.20
3644;DHT22;1838;50.742;7.158;2023-03-11T12:29:27;9.50;69.90
3644;DHT22;1838;50.742;7.158;2023-03-11T12:31:54;9.70;70.60
3644;DHT22;1838;50.742;7.158;2023-03-11T12:34:21;9.70;68.90
3644;DHT22;1838;50.742;7.158;2023-03-11T12:36:49;9.80;67.60
3644;DHT22;1838;50.742;7.158;2023-03-11T12:39:30;9.70;68.50
3644;DHT22;1838;50.742;7.158;2023-03-11T12:42:17;9.90;69.40
3644;DHT22;1838;50.742;7.158;2023-03-11T12:44:43;10.00;68.10
3644;DHT22;1838;50.742;7.158;2023-03-11T12:49:41;9.70;64.80
3644;DHT22;1838;50.742;7.158;2023-03-11T12:54:35;9.80;64.10
3644;DHT22;1838;50.742;7.158;2023-03-11T13:05:28;10.20;59.50
3644;DHT22;1838;50.742;7.158;2023-03-11T13:12:54;9.20;58.30
3644;DHT22;1838;50.742;7.158;2023-03-11T13:20:42;9.50;63.70
3644;DHT22;1838;50.742;7.158;2023-03-11T13:23:22;9.70;62.00
3644;DHT22;1838;50.742;7.158;2023-03-11T13:41:36;10.30;60.20
3644;DHT22;1838;50.742;7.158;2023-03-11T13:47:00;10.10;57.40
3644;DHT22;1838;50.742;7.158;2023-03-11T13:49:49;10.00;58.30
3644;DHT22;1838;50.742;7.158;2023-03-11T13:52:23;10.00;59.90
3644;DHT22;1838;50.742;7.158;2023-03-11T13:55:17;10.10;60.30
3644;DHT22;1838;50.742;7.158;2023-03-11T13:57:51;10.20;61.30
3644;DHT22;1838;50.742;7.158;2023-03-11T14:00:20;10.40;59.60
3644;DHT22;1838;50.742;7.158;2023-03-11T14:02:56;10.50;63.50
3644;DHT22;1838;50.742;7.158;2023-03-11T14:05:34;10.60;63.20
3644;DHT22;1838;50.742;7.158;2023-03-11T14:11:01;10.60;57.80
3644;DHT22;1838;50.742;7.158;2023-03-11T14:13:32;10.60;59.50
3644;DHT22;1838;50.742;7.158;2023-03-11T14:18:43;10.70;58.50
3644;DHT22;1838;50.742;7.158;2023-03-11T14:21:16;10.50;58.00
3644;DHT22;1838;50.742;7.158;2023-03-11T14:23:45;10.40;56.40
3644;DHT22;1838;50.742;7.158;2023-03-11T14:26:14;10.50;56.10
3644;DHT22;1838;50.742;7.158;2023-03-11T14:28:43;10.40;57.90
3644;DHT22;1838;50.742;7.158;2023-03-11T14:31:21;10.40;57.80
3644;DHT22;1838;50.742;7.158;2023-03-11T14:34:03;10.40;57.20
3644;DHT22;1838;50.742;7.158;2023-03-11T14:36:46;10.30;57.90
3644;DHT22;1838;50.742;7.158;2023-03-11T14:45:11;10.40;58.20
3644;DHT22;1838;50.742;7.158;2023-03-11T14:50:19;10.20;55.10
3644;DHT22;1838;50.742;7.158;2023-03-11T14:55:47;9.70;59.80
3644;DHT22;1838;50.742;7.158;2023-03-11T14:58:31;9.40;60.00
3644;DHT22;1838;50.742;7.158;2023-03-11T15:04:13;9.00;59.90
3644;DHT22;1838;50.742;7.158;2023-03-11T15:06:43;8.90;61.10
3644;DHT22;1838;50.742;7.158;2023-03-11T15:09:15;9.00;60.60
3644;DHT22;1838;50.742;7.158;2023-03-11T15:11:45;8.90;59.60
3644;DHT22;1838;50.742;7.158;2023-03-11T15:14:22;8.70;61.20
3644;DHT22;1838;50.742;7.158;2023-03-11T15:16:49;8.50;61.40
3644;DHT22;1838;50.742;7.158;2023-03-11T15:21:54;8.40;62.50
3644;DHT22;1838;50.742;7.158;2023-03-11T15:24:28;8.40;64.30
3644;DHT22;1838;50.742;7.158;2023-03-11T15:27:05;8.40;61.20
3644;DHT22;1838;50.742;7.158;2023-03-11T15:29:32;8.30;60.80
3644;DHT22;1838;50.742;7.158;2023-03-11T15:31:58;8.30;63.30
3644;DHT22;1838;50.742;7.158;2023-03-11T15:34:27;8.30;64.40
3644;DHT22;1838;50.742;7.158;2023-03-11T15:36:54;8.40;63.00
3644;DHT22;1838;50.742;7.158;2023-03-11T15:47:19;8.60;60.20
3644;DHT22;1838;50.742;7.158;2023-03-11T15:49:45;8.50;60.40
3644;DHT22;1838;50.742;7.158;2023-03-11T15:52:12;8.50;61.00
3644;DHT22;1838;50.742;7.158;2023-03-11T15:54:37;8.40;61.20
3644;DHT22;1838;50.742;7.158;2023-03-11T15:57:20;8.40;63.40
3644;DHT22;1838;50.742;7.158;2023-03-11T15:59:47;8.30;63.50
3644;DHT22;1838;50.742;7.158;2023-03-11T16:02:24;8.40;63.20
3644;DHT22;1838;50.742;7.158;2023-03-11T16:04:50;8.50;63.60
3644;DHT22;1838;50.742;7.158;2023-03-11T16:07:16;8.50;62.80
3644;DHT22;1838;50.742;7.158;2023-03-11T16:09:42;8.60;63.50
3644;DHT22;1838;50.742;7.158;2023-03-11T16:12:17;8.70;63.00
3644;DHT22;1838;50.742;7.158;2023-03-11T16:14:43;8.80;63.20
3644;DHT22;1838;50.742;7.158;2023-03-11T16:17:09;9.00;63.90
3644;DHT22;1838;50.742;7.158;2023-03-11T16:19:38;9.10;61.60
3644;DHT22;1838;50.742;7.158;2023-03-11T16:22:04;9.20;63.50
3644;DHT22;1838;50.742;7.158;2023-03-11T16:24:29;9.30;63.00
3644;DHT22;1838;50.742;7.158;2023-03-11T16:26:55;9.40;63.20
3644;DHT22;1838;50.742;7.158;2023-03-11T16:29:21;9.40;64.50
3644;DHT22;1838;50.742;7.158;2023-03-11T16:31:47;9.50;63.80
3644;DHT22;1838;50.742;7.158;2023-03-11T16:34:13;9.50;64.20
3644;DHT22;1838;50.742;7.158;2023-03-11T16:36:39;9.20;63.20
3644;DHT22;1838;50.742;7.158;2023-03-11T16:39:04;9.30;62.50
3644;DHT22;1838;50.742;7.158;2023-03-11T16:41:40;9.40;63.60
3644;DHT22;1838;50.742;7.158;2023-03-11T16:44:06;9.50;63.50
3644;DHT22;1838;50.742;7.158;2023-03-11T16:46:32;9.60;64.70
3644;DHT22;1838;50.742;7.158;2023-03-11T16:48:57;9.50;63.60
3644;DHT22;1838;50.742;7.158;2023-03-11T16:51:23;9.50;63.80
3644;DHT22;1838;50.742;7.158;2023-03-11T16:53:48;9.50;64.10
3644;DHT22;1838;50.742;7.158;2023-03-11T16:56:14;9.50;65.10
3644;DHT22;1838;50.742;7.158;2023-03-11T16:58:39;9.40;63.80
3644;DHT22;1838;50.742;7.158;2023-03-11T17:01:05;9.30;65.80
3644;DHT22;1838;50.742;7.158;2023-03-11T17:03:31;9.30;67.80
3644;DHT22;1838;50.742;7.158;2023-03-11T17:06:01;9.20;66.30
3644;DHT22;1838;50.742;7.158;2023-03-11T17:08:28;9.00;63.70
3644;DHT22;1838;50.742;7.158;2023-03-11T17:10:53;8.90;68.10
3644;DHT22;1838;50.742;7.158;2023-03-11T17:13:19;8.90;70.30
3644;DHT22;1838;50.742;7.158;2023-03-11T17:15:44;8.80;73.20
3644;DHT22;1838;50.742;7.158;2023-03-11T17:18:11;8.60;74.20
3644;DHT22;1838;50.742;7.158;2023-03-11T17:20:40;8.40;75.70
3644;DHT22;1838;50.742;7.158;2023-03-11T17:23:08;8.30;78.30
3644;DHT22;1838;50.742;7.158;2023-03-11T17:25:33;8.20;77.70
3644;DHT22;1838;50.742;7.158;2023-03-11T17:27:59;8.10;79.00
3644;DHT22;1838;50.742;7.158;2023-03-11T17:30:33;7.90;78.80
3644;DHT22;1838;50.742;7.158;2023-03-11T17:32:59;7.80;78.50
3644;DHT22;1838;50.742;7.158;2023-03-11T17:35:24;7.70;80.00
3644;DHT22;1838;50.742;7.158;2023-03-11T17:37:50;7.50;84.90
3644;DHT22;1838;50.742;7.158;2023-03-11T17:40:16;7.20;86.10
3644;DHT22;1838;50.742;7.158;2023-03-11T17:42:41;7.00;88.90
3644;DHT22;1838;50.742;7.158;2023-03-11T17:45:08;6.90;95.50
3644;DHT22;1838;50.742;7.158;2023-03-11T17:47:34;6.60;99.90
3644;DHT22;1838;50.742;7.158;2023-03-11T17:50:02;6.30;99.90
3644;DHT22;1838;50.742;7.158;2023-03-11T17:52:27;5.90;99.90
3644;DHT22;1838;50.742;7.158;2023-03-11T17:54:53;5.50;99.90
3644;DHT22;1838;50.742;7.158;2023-03-11T17:57:21;5.20;99.90
3644;DHT22;1838;50.742;7.158;2023-03-11T17:59:49;5.20;99.90
3644;DHT22;1838;50.742;7.158;2023-03-11T18:02:15;5.10;99.90
3644;DHT22;1838;50.742;7.158;2023-03-11T18:04:41;5.00;99.90
3644;DHT22;1838;50.742;7.158;2023-03-11T18:07:12;5.00;99.90
3644;DHT22;1838;50.742;7.158;2023-03-11T18:09:38;5.00;99.90
3644;DHT22;1838;50.742;7.158;2023-03-11T18:12:04;4.80;99.90
3644;DHT22;1838;50.742;7.158;2023-03-11T18:14:31;4.80;99.90
3644;DHT22;1838;50.742;7.158;2023-03-11T18:16:57;4.80;99.90
3644;DHT22;1838;50.742;7.158;2023-03-11T18:19:22;4.80;99.90
3644;DHT22;1838;50.742;7.158;2023-03-11T18:21:48;4.60;99.90
3644;DHT22;1838;50.742;7.158;2023-03-11T18:24:13;4.30;99.90
3644;DHT22;1838;50.742;7.158;2023-03-11T18:26:39;4.30;99.90
3644;DHT22;1838;50.742;7.158;2023-03-11T18:29:04;4.10;99.90